Weather at Landskrona Airfield

Public forecast

Using degrees Celsius for public forecast. Weather courtesy of forecast.io.

Closest aviation weather report (METAR) to Landskrona Airfield

Closest report is Ljungbyhed Airfield, 14.1 nm (26.2 km) NE.

2024/05/26 20:20 (retrieved 21 minutes ago)

ESTL 262020Z AUTO 12005KT 9999 NCD 16/13 Q1018

Closest aviation forecast (TAF) to Landskrona Airfield

Closest forecast is Copenhagen Kastrup Airport, 21.0 nm (38.9 km) SSW.

2024/05/26 18:31 (retrieved 2 hours ago)

TAF EKCH 261701Z 2618/2718 12010KT 9999 FEW030 TEMPO 2618/2624 SCT030CB TEMPO 2703/2706 2000 BR BKN004 BECMG 2706/2709 18008KT TEMPO 2706/2715 4000 TSRA BKN012 SCT020CB